KDYT

Sky Harbor Airport

Duluth, Minnesota, USA
METAR KDYT 162355Z AUTO 10006KT 10SM BKN021 OVC028 M04/M09 A3009 RMK AO2
Observed Flight Rules
Dec-16 @ 23:55 UTC (27 minutes ago) Marginal Visual Flight Rules
Wind Visibility Clouds
100° at 6 knots 10 miles
  • Broken at 2,100' AGL
  • Overcast at 2,800' AGL
Temperatures Readings
Current -4°C / 25°F
Dewpoint -9°C / 16°F
Humidity 69%
Altimeter 30.09" Hg
Pressure 1019 hPa
Elevation 186
METAR KDYT 162355Z AUTO 10006KT 10SM BKN021 OVC028 M04/M09 A3009 RMK AO2
Observed Flight Rules
Dec-16 @ 23:55 UTC
(27 minutes ago)
MVFR
Wind Visibility
100° at 6 knots 10 miles
Clouds
  • Broken at 2,100' AGL
  • Overcast at 2,800' AGL
Temperature Dewpoint
-4°C / 25°F -9°C / 16°F
Humidity Altimeter Pressure
69% 30.09" Hg 1019 hPa